sensor_id;sensor_type;location;lat;lon;timestamp;P1;durP1;ratioP1;P2;durP2;ratioP2
10651;SDS011;5374;42.742;23.266;2022-10-16T00:01:56;13.07;;;9.60;;
10651;SDS011;5374;42.742;23.266;2022-10-16T00:04:43;13.33;;;9.57;;
10651;SDS011;5374;42.742;23.266;2022-10-16T00:07:30;11.13;;;8.10;;
10651;SDS011;5374;42.742;23.266;2022-10-16T00:10:17;12.70;;;8.90;;
10651;SDS011;5374;42.742;23.266;2022-10-16T00:13:04;10.53;;;8.57;;
10651;SDS011;5374;42.742;23.266;2022-10-16T00:15:54;12.23;;;10.07;;
10651;SDS011;5374;42.742;23.266;2022-10-16T00:18:41;11.93;;;9.13;;
10651;SDS011;5374;42.742;23.266;2022-10-16T00:21:29;13.83;;;9.50;;
10651;SDS011;5374;42.742;23.266;2022-10-16T00:24:16;11.87;;;9.50;;
10651;SDS011;5374;42.742;23.266;2022-10-16T00:27:02;17.20;;;9.13;;
10651;SDS011;5374;42.742;23.266;2022-10-16T00:29:49;14.77;;;9.97;;
10651;SDS011;5374;42.742;23.266;2022-10-16T00:32:38;12.47;;;10.63;;
10651;SDS011;5374;42.742;23.266;2022-10-16T00:35:25;16.13;;;10.30;;
10651;SDS011;5374;42.742;23.266;2022-10-16T00:38:11;16.93;;;10.67;;
10651;SDS011;5374;42.742;23.266;2022-10-16T00:40:58;12.40;;;9.50;;
10651;SDS011;5374;42.742;23.266;2022-10-16T00:43:46;14.87;;;10.00;;
10651;SDS011;5374;42.742;23.266;2022-10-16T00:46:35;16.00;;;9.63;;
10651;SDS011;5374;42.742;23.266;2022-10-16T00:49:23;12.70;;;9.17;;
10651;SDS011;5374;42.742;23.266;2022-10-16T00:52:10;16.23;;;10.63;;
10651;SDS011;5374;42.742;23.266;2022-10-16T00:54:57;16.23;;;10.53;;
10651;SDS011;5374;42.742;23.266;2022-10-16T00:57:44;14.50;;;9.67;;
10651;SDS011;5374;42.742;23.266;2022-10-16T01:00:31;13.53;;;9.97;;
10651;SDS011;5374;42.742;23.266;2022-10-16T01:03:22;14.07;;;9.70;;
10651;SDS011;5374;42.742;23.266;2022-10-16T01:06:15;16.10;;;10.23;;
10651;SDS011;5374;42.742;23.266;2022-10-16T01:09:11;15.97;;;9.40;;
10651;SDS011;5374;42.742;23.266;2022-10-16T01:12:01;13.73;;;9.27;;
10651;SDS011;5374;42.742;23.266;2022-10-16T01:14:54;15.37;;;9.60;;
10651;SDS011;5374;42.742;23.266;2022-10-16T01:17:43;13.33;;;9.80;;
10651;SDS011;5374;42.742;23.266;2022-10-16T01:20:32;16.57;;;9.30;;
10651;SDS011;5374;42.742;23.266;2022-10-16T01:23:25;13.33;;;8.83;;
10651;SDS011;5374;42.742;23.266;2022-10-16T01:26:15;17.70;;;10.17;;
10651;SDS011;5374;42.742;23.266;2022-10-16T01:29:09;16.00;;;9.40;;
10651;SDS011;5374;42.742;23.266;2022-10-16T01:32:00;16.37;;;10.00;;
10651;SDS011;5374;42.742;23.266;2022-10-16T01:34:49;15.27;;;10.00;;
10651;SDS011;5374;42.742;23.266;2022-10-16T01:37:38;15.53;;;10.30;;
10651;SDS011;5374;42.742;23.266;2022-10-16T01:40:26;19.33;;;11.40;;
10651;SDS011;5374;42.742;23.266;2022-10-16T01:43:14;23.00;;;14.17;;
10651;SDS011;5374;42.742;23.266;2022-10-16T01:46:03;26.77;;;15.10;;
10651;SDS011;5374;42.742;23.266;2022-10-16T01:48:51;27.00;;;15.03;;
10651;SDS011;5374;42.742;23.266;2022-10-16T01:51:39;30.77;;;15.87;;
10651;SDS011;5374;42.742;23.266;2022-10-16T01:54:26;31.03;;;17.97;;
10651;SDS011;5374;42.742;23.266;2022-10-16T01:57:14;34.00;;;19.23;;
10651;SDS011;5374;42.742;23.266;2022-10-16T02:00:04;31.17;;;19.27;;
10651;SDS011;5374;42.742;23.266;2022-10-16T02:02:53;32.57;;;18.90;;
10651;SDS011;5374;42.742;23.266;2022-10-16T02:05:42;30.17;;;19.03;;
10651;SDS011;5374;42.742;23.266;2022-10-16T02:08:31;30.70;;;19.17;;
10651;SDS011;5374;42.742;23.266;2022-10-16T02:11:18;28.37;;;16.80;;
10651;SDS011;5374;42.742;23.266;2022-10-16T02:14:05;27.73;;;16.63;;
10651;SDS011;5374;42.742;23.266;2022-10-16T02:16:52;18.77;;;12.37;;
10651;SDS011;5374;42.742;23.266;2022-10-16T02:19:41;22.33;;;10.87;;
10651;SDS011;5374;42.742;23.266;2022-10-16T02:22:29;13.43;;;9.13;;
10651;SDS011;5374;42.742;23.266;2022-10-16T02:25:17;10.73;;;8.23;;
10651;SDS011;5374;42.742;23.266;2022-10-16T02:28:06;9.90;;;7.43;;
10651;SDS011;5374;42.742;23.266;2022-10-16T02:30:55;10.60;;;8.00;;
10651;SDS011;5374;42.742;23.266;2022-10-16T02:33:43;10.23;;;7.40;;
10651;SDS011;5374;42.742;23.266;2022-10-16T02:36:33;10.63;;;7.60;;
10651;SDS011;5374;42.742;23.266;2022-10-16T02:39:21;13.83;;;7.90;;
10651;SDS011;5374;42.742;23.266;2022-10-16T02:42:09;10.23;;;7.97;;
10651;SDS011;5374;42.742;23.266;2022-10-16T02:44:56;8.30;;;6.80;;
10651;SDS011;5374;42.742;23.266;2022-10-16T02:47:43;10.23;;;6.80;;
10651;SDS011;5374;42.742;23.266;2022-10-16T02:50:30;7.87;;;6.23;;
10651;SDS011;5374;42.742;23.266;2022-10-16T02:53:18;8.03;;;6.47;;
10651;SDS011;5374;42.742;23.266;2022-10-16T02:56:05;14.47;;;11.03;;
10651;SDS011;5374;42.742;23.266;2022-10-16T02:58:52;11.13;;;8.37;;
10651;SDS011;5374;42.742;23.266;2022-10-16T03:01:39;8.83;;;6.77;;
10651;SDS011;5374;42.742;23.266;2022-10-16T03:04:25;9.60;;;6.70;;
10651;SDS011;5374;42.742;23.266;2022-10-16T03:07:12;8.07;;;6.83;;
10651;SDS011;5374;42.742;23.266;2022-10-16T03:10:01;8.50;;;6.27;;
10651;SDS011;5374;42.742;23.266;2022-10-16T03:12:47;8.20;;;6.67;;
10651;SDS011;5374;42.742;23.266;2022-10-16T03:15:34;8.97;;;6.13;;
10651;SDS011;5374;42.742;23.266;2022-10-16T03:18:21;8.30;;;6.87;;
10651;SDS011;5374;42.742;23.266;2022-10-16T03:21:08;8.37;;;6.03;;
10651;SDS011;5374;42.742;23.266;2022-10-16T03:23:55;8.20;;;6.20;;
10651;SDS011;5374;42.742;23.266;2022-10-16T03:26:43;8.33;;;6.13;;
10651;SDS011;5374;42.742;23.266;2022-10-16T03:29:30;8.77;;;6.80;;
10651;SDS011;5374;42.742;23.266;2022-10-16T03:32:18;6.97;;;5.77;;
10651;SDS011;5374;42.742;23.266;2022-10-16T03:35:05;7.83;;;6.33;;
10651;SDS011;5374;42.742;23.266;2022-10-16T03:37:52;8.17;;;6.50;;
10651;SDS011;5374;42.742;23.266;2022-10-16T03:40:39;8.20;;;6.30;;
10651;SDS011;5374;42.742;23.266;2022-10-16T03:43:28;9.00;;;6.30;;
10651;SDS011;5374;42.742;23.266;2022-10-16T03:46:14;6.97;;;6.20;;
10651;SDS011;5374;42.742;23.266;2022-10-16T03:49:01;7.33;;;6.57;;
10651;SDS011;5374;42.742;23.266;2022-10-16T03:51:48;10.17;;;7.13;;
10651;SDS011;5374;42.742;23.266;2022-10-16T03:54:35;10.63;;;6.57;;
10651;SDS011;5374;42.742;23.266;2022-10-16T03:57:22;8.80;;;7.00;;
10651;SDS011;5374;42.742;23.266;2022-10-16T04:00:11;10.07;;;7.50;;
10651;SDS011;5374;42.742;23.266;2022-10-16T04:02:58;10.03;;;7.33;;
10651;SDS011;5374;42.742;23.266;2022-10-16T04:05:45;9.00;;;7.27;;
10651;SDS011;5374;42.742;23.266;2022-10-16T04:08:32;10.13;;;7.00;;
10651;SDS011;5374;42.742;23.266;2022-10-16T04:11:20;10.80;;;8.00;;
10651;SDS011;5374;42.742;23.266;2022-10-16T04:14:07;9.47;;;7.60;;
10651;SDS011;5374;42.742;23.266;2022-10-16T04:16:55;10.23;;;6.90;;
10651;SDS011;5374;42.742;23.266;2022-10-16T04:19:42;8.70;;;7.67;;
10651;SDS011;5374;42.742;23.266;2022-10-16T04:22:29;10.13;;;8.20;;
10651;SDS011;5374;42.742;23.266;2022-10-16T04:25:15;11.00;;;8.80;;
10651;SDS011;5374;42.742;23.266;2022-10-16T04:28:02;10.10;;;8.37;;
10651;SDS011;5374;42.742;23.266;2022-10-16T04:30:49;9.87;;;8.20;;
10651;SDS011;5374;42.742;23.266;2022-10-16T04:33:38;10.63;;;8.40;;
10651;SDS011;5374;42.742;23.266;2022-10-16T04:36:24;10.47;;;8.33;;
10651;SDS011;5374;42.742;23.266;2022-10-16T04:39:11;10.67;;;8.70;;
10651;SDS011;5374;42.742;23.266;2022-10-16T04:41:58;12.87;;;9.27;;
10651;SDS011;5374;42.742;23.266;2022-10-16T04:44:45;10.83;;;8.70;;
10651;SDS011;5374;42.742;23.266;2022-10-16T04:47:32;11.40;;;8.73;;
10651;SDS011;5374;42.742;23.266;2022-10-16T04:50:20;11.13;;;8.93;;
10651;SDS011;5374;42.742;23.266;2022-10-16T04:53:07;12.40;;;9.50;;
10651;SDS011;5374;42.742;23.266;2022-10-16T04:55:54;16.20;;;9.17;;
10651;SDS011;5374;42.742;23.266;2022-10-16T04:58:41;10.27;;;9.00;;
10651;SDS011;5374;42.742;23.266;2022-10-16T05:01:28;14.30;;;8.73;;
10651;SDS011;5374;42.742;23.266;2022-10-16T05:04:15;15.07;;;10.00;;
10651;SDS011;5374;42.742;23.266;2022-10-16T05:07:03;12.77;;;9.90;;
10651;SDS011;5374;42.742;23.266;2022-10-16T05:09:50;17.10;;;10.67;;
10651;SDS011;5374;42.742;23.266;2022-10-16T05:12:37;14.43;;;9.30;;
10651;SDS011;5374;42.742;23.266;2022-10-16T05:15:23;12.57;;;9.33;;
10651;SDS011;5374;42.742;23.266;2022-10-16T05:18:11;12.73;;;8.37;;
10651;SDS011;5374;42.742;23.266;2022-10-16T05:20:58;12.30;;;8.27;;
10651;SDS011;5374;42.742;23.266;2022-10-16T05:23:46;8.10;;;7.30;;
10651;SDS011;5374;42.742;23.266;2022-10-16T05:26:33;17.13;;;8.00;;
10651;SDS011;5374;42.742;23.266;2022-10-16T05:29:20;13.57;;;8.30;;
10651;SDS011;5374;42.742;23.266;2022-10-16T05:32:07;9.00;;;7.03;;
10651;SDS011;5374;42.742;23.266;2022-10-16T05:34:54;10.67;;;7.23;;
10651;SDS011;5374;42.742;23.266;2022-10-16T05:37:41;8.47;;;7.30;;
10651;SDS011;5374;42.742;23.266;2022-10-16T05:40:30;10.07;;;7.17;;
10651;SDS011;5374;42.742;23.266;2022-10-16T05:43:16;8.10;;;6.30;;
10651;SDS011;5374;42.742;23.266;2022-10-16T05:46:04;10.43;;;7.20;;
10651;SDS011;5374;42.742;23.266;2022-10-16T05:48:51;11.47;;;7.33;;
10651;SDS011;5374;42.742;23.266;2022-10-16T05:51:39;10.70;;;7.10;;
10651;SDS011;5374;42.742;23.266;2022-10-16T05:54:26;10.10;;;7.33;;
10651;SDS011;5374;42.742;23.266;2022-10-16T05:57:14;12.70;;;11.40;;
10651;SDS011;5374;42.742;23.266;2022-10-16T06:00:02;18.10;;;16.27;;
10651;SDS011;5374;42.742;23.266;2022-10-16T06:02:49;10.27;;;9.27;;
10651;SDS011;5374;42.742;23.266;2022-10-16T06:05:36;11.53;;;7.90;;
10651;SDS011;5374;42.742;23.266;2022-10-16T06:08:23;9.60;;;7.80;;
10651;SDS011;5374;42.742;23.266;2022-10-16T06:11:11;12.60;;;11.40;;
10651;SDS011;5374;42.742;23.266;2022-10-16T06:14:00;13.83;;;9.50;;
10651;SDS011;5374;42.742;23.266;2022-10-16T06:16:48;12.10;;;9.87;;
10651;SDS011;5374;42.742;23.266;2022-10-16T06:19:35;16.63;;;14.77;;
10651;SDS011;5374;42.742;23.266;2022-10-16T06:22:21;10.30;;;6.43;;
10651;SDS011;5374;42.742;23.266;2022-10-16T06:25:08;8.60;;;7.00;;
10651;SDS011;5374;42.742;23.266;2022-10-16T06:27:55;6.23;;;5.63;;
10651;SDS011;5374;42.742;23.266;2022-10-16T06:30:44;7.33;;;5.40;;
10651;SDS011;5374;42.742;23.266;2022-10-16T06:33:31;9.43;;;5.60;;
10651;SDS011;5374;42.742;23.266;2022-10-16T06:36:18;5.85;;;5.25;;
10651;SDS011;5374;42.742;23.266;2022-10-16T06:39:05;5.20;;;4.80;;
10651;SDS011;5374;42.742;23.266;2022-10-16T06:41:52;6.97;;;5.33;;
10651;SDS011;5374;42.742;23.266;2022-10-16T06:44:39;8.17;;;5.20;;
10651;SDS011;5374;42.742;23.266;2022-10-16T06:47:27;6.07;;;5.47;;
10651;SDS011;5374;42.742;23.266;2022-10-16T06:50:14;7.90;;;5.85;;
10651;SDS011;5374;42.742;23.266;2022-10-16T06:53:01;5.97;;;5.38;;
10651;SDS011;5374;42.742;23.266;2022-10-16T06:55:48;8.02;;;5.60;;
10651;SDS011;5374;42.742;23.266;2022-10-16T06:58:35;5.40;;;4.90;;
10651;SDS011;5374;42.742;23.266;2022-10-16T07:01:22;6.37;;;5.03;;
10651;SDS011;5374;42.742;23.266;2022-10-16T07:04:11;6.13;;;5.07;;
10651;SDS011;5374;42.742;23.266;2022-10-16T07:06:59;5.63;;;5.10;;
10651;SDS011;5374;42.742;23.266;2022-10-16T07:09:46;8.87;;;7.37;;
10651;SDS011;5374;42.742;23.266;2022-10-16T07:12:33;5.83;;;5.30;;
10651;SDS011;5374;42.742;23.266;2022-10-16T07:15:20;8.33;;;6.37;;
10651;SDS011;5374;42.742;23.266;2022-10-16T07:18:07;28.40;;;19.43;;
10651;SDS011;5374;42.742;23.266;2022-10-16T07:21:02;7.80;;;6.60;;
10651;SDS011;5374;42.742;23.266;2022-10-16T07:23:49;15.23;;;11.13;;
10651;SDS011;5374;42.742;23.266;2022-10-16T07:26:37;10.43;;;6.73;;
10651;SDS011;5374;42.742;23.266;2022-10-16T07:29:24;7.87;;;6.83;;
10651;SDS011;5374;42.742;23.266;2022-10-16T07:32:11;6.50;;;5.83;;
10651;SDS011;5374;42.742;23.266;2022-10-16T07:34:58;9.53;;;6.13;;
10651;SDS011;5374;42.742;23.266;2022-10-16T07:37:46;7.03;;;6.00;;
10651;SDS011;5374;42.742;23.266;2022-10-16T07:40:33;9.57;;;6.50;;
10651;SDS011;5374;42.742;23.266;2022-10-16T07:43:20;6.73;;;6.10;;
10651;SDS011;5374;42.742;23.266;2022-10-16T07:46:07;6.93;;;6.10;;
10651;SDS011;5374;42.742;23.266;2022-10-16T07:48:54;8.60;;;6.40;;
10651;SDS011;5374;42.742;23.266;2022-10-16T07:51:44;10.57;;;7.00;;
10651;SDS011;5374;42.742;23.266;2022-10-16T07:54:32;9.47;;;6.80;;
10651;SDS011;5374;42.742;23.266;2022-10-16T07:57:19;8.97;;;6.70;;
10651;SDS011;5374;42.742;23.266;2022-10-16T08:00:07;8.17;;;7.00;;
10651;SDS011;5374;42.742;23.266;2022-10-16T08:02:58;8.07;;;7.03;;
10651;SDS011;5374;42.742;23.266;2022-10-16T08:05:45;9.20;;;7.20;;
10651;SDS011;5374;42.742;23.266;2022-10-16T08:08:33;7.97;;;6.90;;
10651;SDS011;5374;42.742;23.266;2022-10-16T08:11:22;7.77;;;6.93;;
10651;SDS011;5374;42.742;23.266;2022-10-16T08:14:09;9.50;;;7.43;;
10651;SDS011;5374;42.742;23.266;2022-10-16T08:16:56;10.00;;;7.47;;
10651;SDS011;5374;42.742;23.266;2022-10-16T08:19:44;8.97;;;8.03;;
10651;SDS011;5374;42.742;23.266;2022-10-16T08:22:31;12.37;;;7.63;;
10651;SDS011;5374;42.742;23.266;2022-10-16T08:25:18;11.03;;;7.03;;
10651;SDS011;5374;42.742;23.266;2022-10-16T08:28:07;11.23;;;7.93;;
10651;SDS011;5374;42.742;23.266;2022-10-16T08:30:54;10.17;;;7.20;;
10651;SDS011;5374;42.742;23.266;2022-10-16T08:33:43;9.23;;;7.60;;
10651;SDS011;5374;42.742;23.266;2022-10-16T08:36:32;8.60;;;6.40;;
10651;SDS011;5374;42.742;23.266;2022-10-16T08:39:19;7.70;;;6.43;;
10651;SDS011;5374;42.742;23.266;2022-10-16T08:42:17;7.33;;;5.50;;
10651;SDS011;5374;42.742;23.266;2022-10-16T08:45:10;7.80;;;5.20;;
10651;SDS011;5374;42.742;23.266;2022-10-16T08:48:05;8.50;;;5.13;;
10651;SDS011;5374;42.742;23.266;2022-10-16T08:50:55;8.47;;;5.80;;
10651;SDS011;5374;42.742;23.266;2022-10-16T08:53:43;9.53;;;6.07;;
10651;SDS011;5374;42.742;23.266;2022-10-16T08:56:31;7.40;;;5.10;;
10651;SDS011;5374;42.742;23.266;2022-10-16T08:59:19;5.70;;;4.90;;
10651;SDS011;5374;42.742;23.266;2022-10-16T09:02:14;5.83;;;4.27;;
10651;SDS011;5374;42.742;23.266;2022-10-16T09:05:17;7.33;;;5.03;;
10651;SDS011;5374;42.742;23.266;2022-10-16T09:08:09;6.00;;;5.13;;
10651;SDS011;5374;42.742;23.266;2022-10-16T09:10:59;4.30;;;3.90;;
10651;SDS011;5374;42.742;23.266;2022-10-16T09:13:51;8.13;;;4.33;;
10651;SDS011;5374;42.742;23.266;2022-10-16T09:16:44;6.30;;;4.00;;
10651;SDS011;5374;42.742;23.266;2022-10-16T09:19:35;5.13;;;4.03;;
10651;SDS011;5374;42.742;23.266;2022-10-16T09:22:26;7.17;;;4.07;;
10651;SDS011;5374;42.742;23.266;2022-10-16T09:25:14;4.80;;;4.30;;
10651;SDS011;5374;42.742;23.266;2022-10-16T09:28:01;5.07;;;3.90;;
10651;SDS011;5374;42.742;23.266;2022-10-16T09:30:48;5.20;;;4.23;;
10651;SDS011;5374;42.742;23.266;2022-10-16T09:33:36;6.20;;;3.90;;
10651;SDS011;5374;42.742;23.266;2022-10-16T09:36:25;5.43;;;4.00;;
10651;SDS011;5374;42.742;23.266;2022-10-16T09:39:13;6.63;;;4.17;;
10651;SDS011;5374;42.742;23.266;2022-10-16T09:42:00;3.87;;;3.50;;
10651;SDS011;5374;42.742;23.266;2022-10-16T09:44:47;6.83;;;3.97;;
10651;SDS011;5374;42.742;23.266;2022-10-16T09:47:36;6.20;;;3.90;;
10651;SDS011;5374;42.742;23.266;2022-10-16T09:50:27;5.20;;;3.70;;
10651;SDS011;5374;42.742;23.266;2022-10-16T09:53:15;5.97;;;5.03;;
10651;SDS011;5374;42.742;23.266;2022-10-16T09:56:04;5.23;;;3.90;;
10651;SDS011;5374;42.742;23.266;2022-10-16T09:58:52;6.00;;;3.53;;
10651;SDS011;5374;42.742;23.266;2022-10-16T10:01:39;6.30;;;3.97;;
10651;SDS011;5374;42.742;23.266;2022-10-16T10:04:36;6.10;;;4.40;;
10651;SDS011;5374;42.742;23.266;2022-10-16T10:07:24;4.73;;;4.00;;
10651;SDS011;5374;42.742;23.266;2022-10-16T10:10:19;4.67;;;3.93;;
10651;SDS011;5374;42.742;23.266;2022-10-16T10:13:14;5.07;;;4.07;;
10651;SDS011;5374;42.742;23.266;2022-10-16T10:16:04;6.10;;;4.10;;
10651;SDS011;5374;42.742;23.266;2022-10-16T10:18:57;5.67;;;3.97;;
10651;SDS011;5374;42.742;23.266;2022-10-16T10:21:44;5.20;;;4.70;;
10651;SDS011;5374;42.742;23.266;2022-10-16T10:24:31;6.57;;;4.07;;
10651;SDS011;5374;42.742;23.266;2022-10-16T10:27:19;7.13;;;4.10;;
10651;SDS011;5374;42.742;23.266;2022-10-16T10:30:08;6.53;;;3.87;;
10651;SDS011;5374;42.742;23.266;2022-10-16T10:33:03;6.67;;;3.67;;
10651;SDS011;5374;42.742;23.266;2022-10-16T10:35:56;6.73;;;4.77;;
10651;SDS011;5374;42.742;23.266;2022-10-16T10:38:46;4.83;;;3.50;;
10651;SDS011;5374;42.742;23.266;2022-10-16T10:41:44;4.57;;;3.33;;
10651;SDS011;5374;42.742;23.266;2022-10-16T10:44:40;4.57;;;3.40;;
10651;SDS011;5374;42.742;23.266;2022-10-16T10:47:36;4.77;;;3.50;;
10651;SDS011;5374;42.742;23.266;2022-10-16T10:50:27;4.90;;;3.40;;
10651;SDS011;5374;42.742;23.266;2022-10-16T10:53:20;4.70;;;3.20;;
10651;SDS011;5374;42.742;23.266;2022-10-16T10:56:14;3.53;;;3.23;;
10651;SDS011;5374;42.742;23.266;2022-10-16T10:59:07;3.27;;;2.90;;
10651;SDS011;5374;42.742;23.266;2022-10-16T11:01:58;7.60;;;3.80;;
10651;SDS011;5374;42.742;23.266;2022-10-16T11:08:02;4.67;;;3.60;;
10651;SDS011;5374;42.742;23.266;2022-10-16T11:10:51;5.03;;;3.27;;
10651;SDS011;5374;42.742;23.266;2022-10-16T11:13:40;4.20;;;3.10;;
10651;SDS011;5374;42.742;23.266;2022-10-16T11:16:30;6.13;;;3.37;;
10651;SDS011;5374;42.742;23.266;2022-10-16T11:19:25;6.27;;;3.10;;
10651;SDS011;5374;42.742;23.266;2022-10-16T11:22:16;5.23;;;3.40;;
10651;SDS011;5374;42.742;23.266;2022-10-16T11:25:05;3.63;;;3.30;;
10651;SDS011;5374;42.742;23.266;2022-10-16T11:28:00;5.50;;;3.83;;
10651;SDS011;5374;42.742;23.266;2022-10-16T11:30:49;4.17;;;3.53;;
10651;SDS011;5374;42.742;23.266;2022-10-16T11:33:37;5.67;;;3.40;;
10651;SDS011;5374;42.742;23.266;2022-10-16T11:36:30;3.40;;;3.10;;
10651;SDS011;5374;42.742;23.266;2022-10-16T11:39:21;4.70;;;3.30;;
10651;SDS011;5374;42.742;23.266;2022-10-16T11:42:09;4.93;;;3.30;;
10651;SDS011;5374;42.742;23.266;2022-10-16T11:44:57;5.77;;;3.03;;
10651;SDS011;5374;42.742;23.266;2022-10-16T11:47:48;3.63;;;3.17;;
10651;SDS011;5374;42.742;23.266;2022-10-16T11:50:38;4.03;;;3.30;;
10651;SDS011;5374;42.742;23.266;2022-10-16T11:53:37;3.30;;;3.00;;
10651;SDS011;5374;42.742;23.266;2022-10-16T11:56:26;6.07;;;2.70;;
10651;SDS011;5374;42.742;23.266;2022-10-16T11:59:15;4.27;;;2.97;;
10651;SDS011;5374;42.742;23.266;2022-10-16T12:02:13;8.00;;;3.30;;
10651;SDS011;5374;42.742;23.266;2022-10-16T12:05:11;3.90;;;3.40;;
10651;SDS011;5374;42.742;23.266;2022-10-16T12:08:05;6.83;;;3.30;;
10651;SDS011;5374;42.742;23.266;2022-10-16T12:11:05;4.57;;;3.03;;
10651;SDS011;5374;42.742;23.266;2022-10-16T12:14:03;4.23;;;2.90;;
10651;SDS011;5374;42.742;23.266;2022-10-16T12:16:51;7.93;;;3.10;;
10651;SDS011;5374;42.742;23.266;2022-10-16T12:19:38;4.53;;;3.30;;
10651;SDS011;5374;42.742;23.266;2022-10-16T12:22:26;4.10;;;2.90;;
10651;SDS011;5374;42.742;23.266;2022-10-16T12:25:19;3.00;;;2.70;;
10651;SDS011;5374;42.742;23.266;2022-10-16T12:28:17;4.20;;;3.67;;
10651;SDS011;5374;42.742;23.266;2022-10-16T12:31:06;5.17;;;3.07;;
10651;SDS011;5374;42.742;23.266;2022-10-16T12:33:56;4.03;;;2.70;;
10651;SDS011;5374;42.742;23.266;2022-10-16T12:36:44;5.43;;;2.60;;
10651;SDS011;5374;42.742;23.266;2022-10-16T12:39:31;3.53;;;2.80;;
10651;SDS011;5374;42.742;23.266;2022-10-16T12:42:22;3.60;;;2.80;;
10651;SDS011;5374;42.742;23.266;2022-10-16T12:45:25;4.53;;;3.20;;
10651;SDS011;5374;42.742;23.266;2022-10-16T12:48:18;5.57;;;3.03;;
10651;SDS011;5374;42.742;23.266;2022-10-16T12:51:12;2.70;;;2.50;;
10651;SDS011;5374;42.742;23.266;2022-10-16T12:53:59;5.37;;;3.43;;
10651;SDS011;5374;42.742;23.266;2022-10-16T12:56:50;2.53;;;2.00;;
10651;SDS011;5374;42.742;23.266;2022-10-16T12:59:40;2.30;;;1.90;;
10651;SDS011;5374;42.742;23.266;2022-10-16T13:02:39;4.73;;;2.87;;
10651;SDS011;5374;42.742;23.266;2022-10-16T13:05:34;2.50;;;1.80;;
10651;SDS011;5374;42.742;23.266;2022-10-16T13:08:29;3.17;;;1.93;;
10651;SDS011;5374;42.742;23.266;2022-10-16T13:11:22;3.57;;;2.00;;
10651;SDS011;5374;42.742;23.266;2022-10-16T13:14:22;1.70;;;1.60;;
10651;SDS011;5374;42.742;23.266;2022-10-16T13:17:11;2.43;;;1.93;;
10651;SDS011;5374;42.742;23.266;2022-10-16T13:20:05;2.57;;;2.10;;
10651;SDS011;5374;42.742;23.266;2022-10-16T13:22:56;3.27;;;2.03;;
10651;SDS011;5374;42.742;23.266;2022-10-16T13:25:48;2.13;;;1.93;;
10651;SDS011;5374;42.742;23.266;2022-10-16T13:28:42;4.53;;;2.37;;
10651;SDS011;5374;42.742;23.266;2022-10-16T13:31:29;3.77;;;2.33;;
10651;SDS011;5374;42.742;23.266;2022-10-16T13:34:17;2.97;;;2.30;;
10651;SDS011;5374;42.742;23.266;2022-10-16T13:37:16;3.67;;;2.60;;
10651;SDS011;5374;42.742;23.266;2022-10-16T13:40:09;3.70;;;1.97;;
10651;SDS011;5374;42.742;23.266;2022-10-16T13:43:03;3.03;;;2.20;;
10651;SDS011;5374;42.742;23.266;2022-10-16T13:45:54;2.93;;;2.13;;
10651;SDS011;5374;42.742;23.266;2022-10-16T13:48:41;3.63;;;2.40;;
10651;SDS011;5374;42.742;23.266;2022-10-16T13:51:29;4.23;;;2.50;;
10651;SDS011;5374;42.742;23.266;2022-10-16T13:54:18;2.80;;;2.33;;
10651;SDS011;5374;42.742;23.266;2022-10-16T13:57:05;2.50;;;2.10;;
10651;SDS011;5374;42.742;23.266;2022-10-16T13:59:53;2.33;;;2.10;;
10651;SDS011;5374;42.742;23.266;2022-10-16T14:02:40;2.93;;;2.20;;
10651;SDS011;5374;42.742;23.266;2022-10-16T14:05:27;3.77;;;2.10;;
10651;SDS011;5374;42.742;23.266;2022-10-16T14:08:14;3.03;;;2.13;;
10651;SDS011;5374;42.742;23.266;2022-10-16T14:11:03;3.67;;;2.50;;
10651;SDS011;5374;42.742;23.266;2022-10-16T14:13:50;3.37;;;2.30;;
10651;SDS011;5374;42.742;23.266;2022-10-16T14:16:37;2.30;;;2.10;;
10651;SDS011;5374;42.742;23.266;2022-10-16T14:19:27;3.43;;;2.40;;
10651;SDS011;5374;42.742;23.266;2022-10-16T14:22:30;2.43;;;2.20;;
10651;SDS011;5374;42.742;23.266;2022-10-16T14:25:23;3.60;;;2.47;;
10651;SDS011;5374;42.742;23.266;2022-10-16T14:28:17;3.33;;;2.43;;
10651;SDS011;5374;42.742;23.266;2022-10-16T14:31:17;5.47;;;2.70;;
10651;SDS011;5374;42.742;23.266;2022-10-16T14:34:25;5.60;;;2.50;;
10651;SDS011;5374;42.742;23.266;2022-10-16T14:37:14;3.47;;;2.43;;
10651;SDS011;5374;42.742;23.266;2022-10-16T14:40:11;5.20;;;3.00;;
10651;SDS011;5374;42.742;23.266;2022-10-16T14:43:01;5.90;;;2.97;;
10651;SDS011;5374;42.742;23.266;2022-10-16T14:45:52;5.37;;;3.20;;
10651;SDS011;5374;42.742;23.266;2022-10-16T14:48:40;4.57;;;3.20;;
10651;SDS011;5374;42.742;23.266;2022-10-16T14:51:28;6.00;;;3.13;;
10651;SDS011;5374;42.742;23.266;2022-10-16T14:54:16;4.93;;;2.90;;
10651;SDS011;5374;42.742;23.266;2022-10-16T14:57:03;4.27;;;2.80;;
10651;SDS011;5374;42.742;23.266;2022-10-16T14:59:50;3.53;;;2.90;;
10651;SDS011;5374;42.742;23.266;2022-10-16T15:02:39;5.00;;;3.73;;
10651;SDS011;5374;42.742;23.266;2022-10-16T15:05:26;7.20;;;2.90;;
10651;SDS011;5374;42.742;23.266;2022-10-16T15:08:13;7.17;;;3.87;;
10651;SDS011;5374;42.742;23.266;2022-10-16T15:11:01;7.20;;;5.57;;
10651;SDS011;5374;42.742;23.266;2022-10-16T15:13:48;10.10;;;5.17;;
10651;SDS011;5374;42.742;23.266;2022-10-16T15:16:35;7.63;;;5.87;;
10651;SDS011;5374;42.742;23.266;2022-10-16T15:19:23;9.00;;;5.73;;
10651;SDS011;5374;42.742;23.266;2022-10-16T15:22:10;7.57;;;5.20;;
10651;SDS011;5374;42.742;23.266;2022-10-16T15:24:57;7.00;;;4.80;;
10651;SDS011;5374;42.742;23.266;2022-10-16T15:27:44;7.50;;;5.00;;
10651;SDS011;5374;42.742;23.266;2022-10-16T15:30:31;5.80;;;4.60;;
10651;SDS011;5374;42.742;23.266;2022-10-16T15:33:19;7.00;;;5.27;;
10651;SDS011;5374;42.742;23.266;2022-10-16T15:36:08;7.70;;;4.70;;
10651;SDS011;5374;42.742;23.266;2022-10-16T15:38:55;6.17;;;4.20;;
10651;SDS011;5374;42.742;23.266;2022-10-16T15:41:42;4.87;;;3.37;;
10651;SDS011;5374;42.742;23.266;2022-10-16T15:44:29;5.97;;;3.20;;
10651;SDS011;5374;42.742;23.266;2022-10-16T15:47:16;6.10;;;3.80;;
10651;SDS011;5374;42.742;23.266;2022-10-16T15:50:03;9.97;;;5.60;;
10651;SDS011;5374;42.742;23.266;2022-10-16T15:52:52;12.27;;;5.90;;
10651;SDS011;5374;42.742;23.266;2022-10-16T15:55:39;6.83;;;4.40;;
10651;SDS011;5374;42.742;23.266;2022-10-16T15:58:27;6.13;;;3.97;;
10651;SDS011;5374;42.742;23.266;2022-10-16T16:01:14;7.97;;;3.80;;
10651;SDS011;5374;42.742;23.266;2022-10-16T16:04:01;7.27;;;5.10;;
10651;SDS011;5374;42.742;23.266;2022-10-16T16:06:49;10.67;;;6.70;;
10651;SDS011;5374;42.742;23.266;2022-10-16T16:09:38;12.47;;;7.83;;
10651;SDS011;5374;42.742;23.266;2022-10-16T16:12:24;13.83;;;7.87;;
10651;SDS011;5374;42.742;23.266;2022-10-16T16:15:11;14.30;;;8.60;;
10651;SDS011;5374;42.742;23.266;2022-10-16T16:17:58;11.87;;;7.60;;
10651;SDS011;5374;42.742;23.266;2022-10-16T16:20:47;10.27;;;6.60;;
10651;SDS011;5374;42.742;23.266;2022-10-16T16:23:34;8.73;;;7.33;;
10651;SDS011;5374;42.742;23.266;2022-10-16T16:26:23;10.13;;;6.20;;
10651;SDS011;5374;42.742;23.266;2022-10-16T16:29:11;7.67;;;5.00;;
10651;SDS011;5374;42.742;23.266;2022-10-16T16:31:58;8.47;;;4.80;;
10651;SDS011;5374;42.742;23.266;2022-10-16T16:34:45;6.53;;;4.70;;
10651;SDS011;5374;42.742;23.266;2022-10-16T16:37:32;7.83;;;5.33;;
10651;SDS011;5374;42.742;23.266;2022-10-16T16:40:19;7.63;;;5.33;;
10651;SDS011;5374;42.742;23.266;2022-10-16T16:43:08;7.43;;;5.27;;
10651;SDS011;5374;42.742;23.266;2022-10-16T16:45:55;7.63;;;5.13;;
10651;SDS011;5374;42.742;23.266;2022-10-16T16:48:42;6.27;;;5.43;;
10651;SDS011;5374;42.742;23.266;2022-10-16T16:51:29;7.97;;;5.13;;
10651;SDS011;5374;42.742;23.266;2022-10-16T16:54:16;9.00;;;4.83;;